Meath Environmental Platform

Observations for Trim Patrick St

Time AQI Temp °C Hum % Pres Pa CO μg/m³ H₂S μg/m³ NO μg/m³ NO₂ μg/m³ O₃ μg/m³ SO₂ μg/m³ PM1 μg/m³ PM2.5 μg/m³ PM10 μg/m³
Thursday 6 August 2026
17:52 3 24.7 39 68,930 0 7.6 1.55 9.3 69.73 9.35 2 7.08 7.79
17:51 3 24.8 39 68,926 0 9.24 1.42 9.09 71.03 9.16 2 7.89 8.68
17:50 3 24.9 39 68,916 0 15.08 1.46 14.12 81.36 10.77 2 7.91 8.7
17:49 3 25 39 68,934 0 4.02 1.25 10.5 66.94 8.75 2 7.9 8.69
17:48 3 25.1 39 68,932 0 10.42 1.21 9.42 77.16 10.39 2 7.9 8.69
17:47 3 25.2 38 68,924 0 6.41 1.18 10.79 75.44 10.39 2 7.94 8.73
17:46 3 25.3 39 68,914 0 6.88 1.33 9.67 69.04 10.07 2 7.13 7.84
17:45 3 25.4 38 68,932 0 9.19 1.34 18.8 69.53 10 2 7.18 7.9
17:44 3 25.5 38 68,922 0 4.87 1.84 9.77 65.79 9.34 2.86 7.99 8.78
17:43 3 25.6 38 68,939 0 9.2 1.65 16.32 73.32 10.4 2 7.18 7.9
17:42 3 25.7 37 68,935 0 5.76 1.61 10.2 53.06 9.68 2 7.22 7.94
17:41 3 25.8 37 68,961 0 3.87 1.6 13.7 63.25 9.36 2.86 8 8.81
17:40 3 25.9 37 68,961 0 0.54 1.6 10.17 63.81 9.72 2 7.21 7.93
17:39 3 25.9 37 68,961 0 3.33 1.42 9.41 60.52 9.88 2 7.23 7.96
17:38 3 26 37 68,961 0 10.32 1.47 29.58 58.9 9.78 2 7.21 7.94
17:37 3 26 37 68,987 0 5.85 1.71 12.85 68.4 9.96 2 8 8.8
17:36 3 26.1 38 68,963 0 5.47 1.4 11.63 77.44 10.09 2 7.19 7.91
17:35 3 26.2 37 68,961 0 1.87 1.38 12.46 68.91 9.96 2 7.25 7.98
17:34 3 26.2 38 68,985 0 1.26 1.28 10.34 53.95 9.01 2 7.97 8.77
17:33 3 26.3 38 68,989 0 4.85 1.4 13.85 66.83 9.82 2 7.2 7.92